Data for 03/25/2009

Time Sea-Level Adjusted Pressure Absolute Pressure Temperature Relative Humidity Dew Point   
(mb) (inHg) (mb) (inHg) (C) (F) (%) (C) (F)
00:05 1013 29.91 842 24.86 -0.8 30.6 83 -3.3 26.1
00:10 1013 29.91 842 24.86 -0.5 31 85 -2.8 27
00:15 1013 29.91 842 24.86 -0.6 30.8 82 -3.4 26
00:20 1013 29.91 842 24.86 -0.4 31.3 83 -3 26.6
00:25 1013 29.91 842 24.86 -0.3 31.5 82 -2.9 26.7
00:30 1013 29.91 842 24.86 -0 32 80 -3 26.6
00:35 1013 29.91 842 24.86 0.2 32.3 80 -2.8 26.9
00:40 1013 29.91 842 24.86 0.1 32.2 81 -2.7 27.1
00:45 1013 29.91 842 24.86 0.1 32.1 82 -2.7 27.1
00:50 1013 29.91 842 24.86 0 32.1 81 -2.9 26.8
00:55 1013 29.91 842 24.86 -0 32 81 -2.9 26.7
01:00 1013 29.91 842 24.86 0.1 32.1 81 -2.8 26.9
01:05 1013 29.91 842 24.86 -0 32 85 -2.3 27.9
01:10 1013 29.91 842 24.86 -0.4 31.2 90 -1.8 28.7
01:15 1013 29.91 842 24.86 -0.7 30.7 92 -1.9 28.6
01:20 1013 29.91 842 24.86 -0.9 30.5 92 -2 28.4
01:25 1013 29.91 842 24.86 -0.7 30.7 91 -2 28.4
01:30 1013 29.91 842 24.86 -0.7 30.7 91 -2 28.4
01:35 1013 29.91 842 24.86 -0.7 30.7 90 -2.1 28.2
01:40 1013 29.91 842 24.86 -0.8 30.5 92 -2 28.5
01:45 1012 29.88 842 24.86 -0.9 30.4 92 -2.1 28.2
01:50 1012 29.88 842 24.86 -1 30.2 91 -2.2 28
01:55 1012 29.88 842 24.86 -1 30.2 92 -2.1 28.2
02:00 1012 29.88 842 24.86 -1.1 30 93 -2.2 28.1
02:05 1012 29.88 841 24.83 -1.3 29.7 93 -2.3 27.8
02:10 1012 29.88 841 24.83 -1.4 29.5 93 -2.4 27.7
02:15 1012 29.88 841 24.83 -1.4 29.4 93 -2.5 27.6
02:20 1012 29.88 841 24.83 -1.4 29.4 93 -2.5 27.5
02:25 1012 29.88 841 24.83 -1.4 29.5 93 -2.4 27.7
02:30 1012 29.88 841 24.83 -1.4 29.5 93 -2.5 27.6
02:35 1012 29.88 841 24.83 -1.5 29.4 93 -2.4 27.7
02:40 1012 29.88 841 24.83 -1.5 29.4 93 -2.5 27.6
02:45 1012 29.88 841 24.83 -1.4 29.4 93 -2.5 27.6
02:50 1012 29.88 841 24.83 -1.4 29.4 92 -2.5 27.4
02:55 1011 29.85 841 24.83 -1.4 29.5 91 -2.7 27.1
03:00 1011 29.85 841 24.83 -1.3 29.7 89 -2.9 26.7
03:05 1011 29.85 840 24.81 -1.2 29.8 89 -2.9 26.9
03:10 1011 29.85 840 24.81 -1.1 30 88 -2.9 26.7
03:15 1011 29.85 840 24.81 -1.1 30.1 87 -2.9 26.7
03:20 1011 29.85 840 24.81 -1.1 30 89 -2.8 27
03:25 1011 29.85 840 24.81 -1.1 29.9 90 -2.7 27.2
03:30 1011 29.85 840 24.81 -1.3 29.7 91 -2.6 27.3
03:35 1011 29.85 840 24.81 -1.4 29.5 91 -2.7 27.1
03:40 1011 29.85 840 24.81 -1.3 29.6 87 -3.2 26.2
03:45 1011 29.85 840 24.81 -1.1 30.1 87 -2.9 26.7
03:50 1011 29.85 840 24.81 -1 30.2 87 -2.9 26.8
03:55 1011 29.85 840 24.81 -1.1 30.1 88 -2.8 27
04:00 1011 29.85 840 24.81 -1 30.3 89 -2.5 27.5
04:05 1011 29.85 840 24.81 -0.9 30.4 82 -3.6 25.6
04:10 1011 29.85 840 24.81 -0.7 30.7 87 -2.7 27.2
04:15 1011 29.85 840 24.81 -0.9 30.3 88 -2.7 27.2
04:20 1011 29.85 840 24.81 -1.1 30 88 -2.8 27
04:25 1010 29.83 840 24.81 -0.9 30.4 84 -3.3 26
04:30 1010 29.83 840 24.81 -0.5 31.1 83 -3 26.7
04:35 1010 29.83 840 24.81 -0.5 31.1 83 -3 26.5
04:40 1010 29.83 839 24.78 -0.3 31.4 79 -3.5 25.7
04:45 1010 29.83 839 24.78 -0.4 31.3 79 -3.5 25.6
04:50 1010 29.83 839 24.78 -0.6 31 80 -3.5 25.6
04:55 1010 29.83 839 24.78 -0.6 30.9 82 -3.3 26.1
05:00 1010 29.83 839 24.78 -0.8 30.6 81 -3.6 25.5
05:05 1010 29.83 839 24.78 -0.9 30.4 82 -3.6 25.5
05:10 1010 29.83 839 24.78 -0.7 30.7 79 -3.9 24.9
05:15 1010 29.83 839 24.78 -0.4 31.2 76 -4.2 24.5
05:20 1010 29.83 839 24.78 -0.3 31.5 74 -4.3 24.3
05:25 1010 29.83 839 24.78 -0.3 31.5 80 -3.4 25.9
05:30 1010 29.83 839 24.78 -0.5 31.1 81 -3.4 25.9
05:35 1010 29.83 839 24.78 -0.8 30.6 79 -4 24.9
05:40 1010 29.83 839 24.78 -0.7 30.7 77 -4.2 24.5
05:45 1010 29.83 839 24.78 -0.5 31 77 -4.1 24.6
05:50 1010 29.83 839 24.78 -0.5 31.1 78 -3.8 25.2
05:55 1010 29.83 839 24.78 -0.5 31.1 79 -3.7 25.3
06:00 1010 29.83 839 24.78 -0.5 31 76 -4.3 24.3
06:05 1010 29.83 839 24.78 -0.5 31.1 76 -4.2 24.4
06:10 1010 29.83 839 24.78 -0.4 31.2 74 -4.6 23.7
06:15 1009 29.8 839 24.78 -0.4 31.3 75 -4.3 24.2
06:20 1009 29.8 839 24.78 -0.4 31.3 75 -4.2 24.4
06:25 1009 29.8 839 24.78 -0.5 31.1 75 -4.4 24
06:30 1009 29.8 839 24.78 -0.5 31.2 75 -4.4 24.1
06:35 1009 29.8 838 24.75 -0.4 31.2 74 -4.5 23.9
06:40 1009 29.8 838 24.75 -0.4 31.3 77 -3.9 25
06:45 1009 29.8 838 24.75 -0.4 31.3 67 -5.8 21.5
06:50 1009 29.8 838 24.75 -0.2 31.7 68 -5.4 22.3
06:55 1009 29.8 838 24.75 -0.2 31.6 69 -5.2 22.6
07:00 1009 29.8 838 24.75 -0.3 31.4 69 -5.3 22.4
07:05 1009 29.8 838 24.75 -0.3 31.4 68 -5.5 22.1
07:10 1009 29.8 838 24.75 -0.4 31.3 65 -6.1 21
07:15 1009 29.8 838 24.75 -0.3 31.5 62 -6.8 19.8
07:20 1009 29.8 838 24.75 -0 31.9 68 -5.3 22.4
07:25 1009 29.8 838 24.75 -0.2 31.6 67 -5.7 21.7
07:30 1009 29.8 838 24.75 -0.1 31.8 66 -5.8 21.6
07:35 1009 29.8 838 24.75 0 32.1 64 -6 21.2
07:40 1009 29.8 838 24.75 -0.1 31.9 64 -6.2 20.9
07:45 1009 29.8 838 24.75 0.1 32.1 63 -6.2 20.8
07:50 1009 29.8 838 24.75 -0.1 31.9 62 -6.4 20.4
07:55 1008 29.77 838 24.75 0.1 32.1 63 -6.1 21
08:00 1008 29.77 838 24.75 0.2 32.3 63 -6 21.1
08:05 1008 29.77 838 24.75 0.1 32.2 64 -6 21.3
08:10 1008 29.77 838 24.75 0.1 32.1 63 -6.1 21
08:15 1008 29.77 837 24.72 0.1 32.1 63 -6.1 21.1
08:20 1008 29.77 837 24.72 0.1 32.1 63 -6.1 20.9
08:25 1008 29.77 837 24.72 0.2 32.3 62 -6.2 20.8
08:30 1008 29.77 837 24.72 0.3 32.6 63 -5.9 21.4
08:35 1008 29.77 837 24.72 0.4 32.8 62 -6 21.3
08:40 1008 29.77 837 24.72 0.4 32.7 62 -6.1 21.1
08:45 1008 29.77 837 24.72 0.4 32.7 64 -5.7 21.8
08:50 1008 29.77 837 24.72 0.5 32.9 62 -6 21.3
08:55 1008 29.77 837 24.72 0.6 33.2 61 -6 21.2
09:00 1008 29.77 837 24.72 0.8 33.4 61 -5.9 21.3
09:05 1008 29.77 837 24.72 0.8 33.4 62 -5.7 21.8
09:10 1008 29.77 837 24.72 0.8 33.4 61 -5.9 21.3
09:15 1008 29.77 837 24.72 0.7 33.2 62 -5.9 21.5
09:20 1008 29.77 837 24.72 0.7 33.2 60 -6.3 20.7
09:25 1008 29.77 837 24.72 0.7 33.2 59 -6.5 20.3
09:30 1008 29.77 837 24.72 0.6 33 58 -6.7 20
09:35 1008 29.77 837 24.72 0.6 33.1 59 -6.5 20.3
09:40 1008 29.77 837 24.72 0.7 33.2 58 -6.7 19.9
09:45 1008 29.77 837 24.72 0.8 33.4 56 -7.1 19.2
09:50 1008 29.77 837 24.72 1.2 34.2 55 -6.8 19.7
09:55 1008 29.77 837 24.72 1.8 35.2 54 -6.5 20.3
10:00 1008 29.77 837 24.72 2.1 35.8 54 -6.1 21
10:05 1008 29.77 837 24.72 2.2 35.9 54 -6.1 21.1
10:10 1008 29.77 837 24.72 2.1 35.8 56 -5.8 21.6
10:15 1008 29.77 837 24.72 1.7 35.1 58 -5.7 21.7
10:20 1008 29.77 837 24.72 1.3 34.4 57 -6.3 20.7
10:25 1008 29.77 837 24.72 1.4 34.5 59 -5.8 21.6
10:30 1008 29.77 837 24.72 1.3 34.3 59 -5.8 21.6
10:35 1008 29.77 837 24.72 1.2 34.2 60 -5.8 21.6
10:40 1008 29.77 837 24.72 1.3 34.4 59 -5.8 21.5
10:45 1008 29.77 837 24.72 1.2 34.2 59 -6 21.3
10:50 1008 29.77 837 24.72 1.7 35 56 -6.1 21
10:55 1008 29.77 837 24.72 2.8 37.1 52 -6 21.3
11:00 1008 29.77 837 24.72 3.6 38.4 48 -6.5 20.3
11:05 1007 29.74 837 24.72 3.2 37.8 51 -6 21.1
11:10 1007 29.74 837 24.72 2.6 36.7 54 -5.7 21.8
11:15 1007 29.74 836 24.69 1.7 35.1 56 -6.1 21
11:20 1007 29.74 836 24.69 2.1 35.7 52 -6.8 19.7
11:25 1007 29.74 836 24.69 3 37.5 50 -6.4 20.5
11:30 1007 29.74 837 24.72 3.3 38 47 -6.9 19.7
11:35 1007 29.74 837 24.72 3.5 38.2 43 -7.8 17.9
11:40 1007 29.74 837 24.72 3.3 37.9 46 -7.2 19
11:45 1007 29.74 837 24.72 2.9 37.3 44 -8.1 17.4
11:50 1007 29.74 837 24.72 2.6 36.7 49 -7.1 19.2
11:55 1007 29.74 836 24.69 2.6 36.7 47 -7.6 18.2
12:00 1007 29.74 836 24.69 2.8 37 46 -7.6 18.3
12:05 1007 29.74 836 24.69 3.8 38.9 43 -7.7 18.1
12:10 1007 29.74 836 24.69 4.7 40.4 41 -7.4 18.7
12:15 1007 29.74 836 24.69 4.8 40.6 42 -7.2 19.1
12:20 1007 29.74 836 24.69 4 39.3 36 -9.8 14.4
12:25 1007 29.74 836 24.69 4.5 40.2 35 -9.6 14.7
12:30 1007 29.74 836 24.69 5 40.9 35 -9.2 15.4
12:35 1007 29.74 836 24.69 4.7 40.4 33 -10.3 13.5
12:40 1007 29.74 836 24.69 4.7 40.5 33 -10.1 13.8
12:45 1007 29.74 836 24.69 4.2 39.5 43 -7.3 18.9
12:50 1007 29.74 836 24.69 3.2 37.8 49 -6.5 20.2
12:55 1007 29.74 836 24.69 2.7 36.9 51 -6.4 20.5
13:00 1007 29.74 836 24.69 2.5 36.5 53 -6 21.2
13:05 1007 29.74 836 24.69 1.3 34.3 58 -6 21.1
13:10 1007 29.74 836 24.69 0.6 33.1 57 -6.9 19.5
13:15 1007 29.74 836 24.69 0.5 33 56 -7.2 19
13:20 1007 29.74 836 24.69 0.5 32.8 60 -6.3 20.6
13:25 1007 29.74 836 24.69 0.7 33.2 56 -7.2 19
13:30 1007 29.74 836 24.69 0.8 33.4 55 -7.2 19.1
13:35 1007 29.74 836 24.69 1.7 35.1 51 -7.3 18.9
13:40 1007 29.74 837 24.72 1.5 34.7 53 -7.2 19.1
13:45 1007 29.74 837 24.72 1.7 35.1 53 -6.9 19.6
13:50 1007 29.74 837 24.72 2.7 36.8 51 -6.5 20.4
13:55 1007 29.74 837 24.72 2.7 36.9 50 -6.7 20
14:00 1008 29.77 837 24.72 2.4 36.4 54 -6 21.2
14:05 1008 29.77 837 24.72 1.8 35.3 69 -3.3 26
14:10 1008 29.77 837 24.72 0.8 33.4 71 -3.9 25
14:15 1007 29.74 837 24.72 0.4 32.6 72 -4 24.7
14:20 1007 29.74 837 24.72 0.8 33.5 69 -4.1 24.5
14:25 1007 29.74 837 24.72 0.4 32.6 74 -3.8 25.1
14:30 1008 29.77 837 24.72 -0.1 31.8 75 -4 24.9
14:35 1008 29.77 837 24.72 -0.3 31.4 73 -4.7 23.6
14:40 1008 29.77 837 24.72 0 32 73 -4.3 24.2
14:45 1008 29.77 837 24.72 -0.3 31.5 75 -4.2 24.5
14:50 1008 29.77 837 24.72 -1.2 29.9 86 -3.3 26.1
14:55 1008 29.77 837 24.72 -1.9 28.5 91 -3.2 26.2
15:00 1008 29.77 837 24.72 -2.3 27.9 91 -3.6 25.6
15:05 1007 29.74 837 24.72 -2.3 27.8 90 -3.7 25.4
15:10 1007 29.74 837 24.72 -2.1 28.2 89 -3.7 25.3
15:15 1007 29.74 837 24.72 -2 28.4 86 -4.1 24.6
15:20 1007 29.74 837 24.72 -1.8 28.7 85 -4 24.8
15:25 1007 29.74 837 24.72 -1.4 29.4 84 -3.8 25.2
15:30 1008 29.77 837 24.72 -1.5 29.3 81 -4.3 24.3
15:35 1008 29.77 837 24.72 -1.4 29.5 82 -4 24.7
15:40 1008 29.77 837 24.72 -1.3 29.7 85 -3.5 25.7
15:45 1008 29.77 837 24.72 -1.4 29.4 85 -3.6 25.6
15:50 1008 29.77 837 24.72 -1.4 29.6 87 -3.2 26.3
15:55 1008 29.77 837 24.72 -1.4 29.4 90 -2.9 26.8
16:00 1008 29.77 837 24.72 -0.9 30.4 86 -3 26.6
16:05 1008 29.77 837 24.72 -0.5 31.1 84 -2.9 26.8
16:10 1008 29.77 837 24.72 -0.3 31.5 81 -3.2 26.3
16:15 1008 29.77 837 24.72 -0.4 31.3 79 -3.6 25.5
16:20 1008 29.77 837 24.72 -0.7 30.7 82 -3.4 25.9
16:25 1008 29.77 837 24.72 -0.7 30.7 77 -4.2 24.5
16:30 1008 29.77 837 24.72 -0.3 31.5 75 -4.3 24.3
16:35 1008 29.77 837 24.72 -0.4 31.3 76 -4 24.7
16:40 1008 29.77 837 24.72 -0.6 30.9 77 -4.1 24.5
16:45 1008 29.77 837 24.72 -0.3 31.4 74 -4.4 24.1
16:50 1008 29.77 837 24.72 0.4 32.6 69 -4.8 23.4
16:55 1008 29.77 837 24.72 0.5 33 70 -4.4 24.1
17:00 1008 29.77 837 24.72 0.8 33.4 67 -4.7 23.6
17:05 1008 29.77 837 24.72 0.6 33 69 -4.4 24
17:10 1008 29.77 837 24.72 0.7 33.3 67 -4.7 23.5
17:15 1008 29.77 837 24.72 0.6 33.1 68 -4.6 23.7
17:20 1008 29.77 837 24.72 -0.5 31.1 76 -4.2 24.4
17:25 1008 29.77 837 24.72 -1.2 29.8 78 -4.6 23.6
17:30 1008 29.77 837 24.72 -1.3 29.7 81 -4.1 24.6
17:35 1008 29.77 837 24.72 -1.3 29.7 84 -3.7 25.4
17:40 1008 29.77 837 24.72 -0.9 30.3 76 -4.6 23.7
17:45 1008 29.77 837 24.72 -1 30.2 82 -3.7 25.3
17:50 1008 29.77 837 24.72 -1 30.1 82 -3.7 25.3
17:55 1008 29.77 837 24.72 -1.5 29.4 84 -3.9 25
18:00 1008 29.77 838 24.75 -1.8 28.7 86 -3.9 25
18:05 1008 29.77 838 24.75 -1.9 28.6 91 -3.2 26.2
18:10 1009 29.8 838 24.75 -1.9 28.5 92 -3 26.6
18:15 1009 29.8 838 24.75 -1.9 28.6 91 -3.1 26.4
18:20 1009 29.8 838 24.75 -1.7 28.9 90 -3.2 26.3
18:25 1009 29.8 838 24.75 -1.7 29 92 -2.9 26.9
18:30 1009 29.8 838 24.75 -1.7 29 92 -2.8 26.9
18:35 1009 29.8 838 24.75 -1.7 29 91 -2.9 26.7
18:40 1009 29.8 838 24.75 -1.6 29.1 90 -3.1 26.5
18:45 1009 29.8 838 24.75 -1.5 29.3 90 -2.9 26.7
18:50 1009 29.8 838 24.75 -1.5 29.4 90 -2.9 26.7
18:55 1009 29.8 838 24.75 -1.5 29.2 89 -3.2 26.3
19:00 1009 29.8 838 24.75 -1.6 29.1 88 -3.4 25.9
19:05 1009 29.8 838 24.75 -1.8 28.7 86 -3.9 25
19:10 1009 29.8 839 24.78 -1.7 28.9 85 -4 24.8
19:15 1009 29.8 839 24.78 -1.8 28.8 82 -4.4 24.1
19:20 1010 29.83 839 24.78 -2.1 28.2 83 -4.7 23.6
19:25 1010 29.83 839 24.78 -2.2 28 80 -5.2 22.6
19:30 1010 29.83 839 24.78 -2.3 27.8 80 -5.4 22.3
19:35 1010 29.83 839 24.78 -2.3 27.8 77 -5.8 21.5
19:40 1010 29.83 839 24.78 -2.4 27.6 75 -6.2 20.8
19:45 1010 29.83 839 24.78 -2.5 27.5 72 -6.9 19.6
19:50 1010 29.83 839 24.78 -2.7 27.1 71 -7.2 19.1
19:55 1010 29.83 839 24.78 -2.8 26.9 69 -7.8 17.9
20:00 1010 29.83 839 24.78 -3 26.7 66 -8.5 16.8
20:05 1010 29.83 840 24.81 -3.4 26 71 -7.9 17.7
20:10 1010 29.83 840 24.81 -3.5 25.8 69 -8.4 17
20:15 1011 29.85 840 24.81 -3.4 25.8 68 -8.5 16.7
20:20 1011 29.85 840 24.81 -3.3 26.1 67 -8.5 16.6
20:25 1011 29.85 840 24.81 -3.6 25.5 69 -8.4 16.9
20:30 1011 29.85 840 24.81 -3.8 25.1 69 -8.6 16.5
20:35 1011 29.85 840 24.81 -3.8 25.2 67 -9.1 15.7
20:40 1011 29.85 840 24.81 -3.9 25 65 -9.5 14.8
20:45 1011 29.85 840 24.81 -4.1 24.6 64 -10 14
20:50 1011 29.85 841 24.83 -4 24.9 63 -10 13.9
20:55 1012 29.88 841 24.83 -3.8 25.1 64 -9.7 14.5
21:00 1012 29.88 841 24.83 -4.1 24.6 62 -10.3 13.4
21:05 1012 29.88 841 24.83 -4.3 24.2 65 -9.9 14.1
21:10 1012 29.88 841 24.83 -4.5 23.8 62 -10.8 12.6
21:15 1012 29.88 841 24.83 -4.7 23.6 61 -11.1 12.1
21:20 1012 29.88 841 24.83 -4.9 23.3 61 -11.3 11.7
21:25 1012 29.88 841 24.83 -5.1 22.8 65 -10.8 12.6
21:30 1012 29.88 841 24.83 -5.3 22.4 65 -10.9 12.4
21:35 1012 29.88 842 24.86 -5.5 22.2 67 -10.7 12.7
21:40 1012 29.88 842 24.86 -6 21.3 74 -9.9 14.3
21:45 1012 29.88 842 24.86 -6.5 20.3 75 -10.3 13.5
21:50 1013 29.91 842 24.86 -6.6 20.2 78 -9.8 14.4
21:55 1013 29.91 842 24.86 -6.9 19.6 81 -9.6 14.8
22:00 1013 29.91 842 24.86 -7.2 19 85 -9.4 15.1
22:05 1013 29.91 842 24.86 -7.7 18.2 87 -9.5 14.9
22:10 1013 29.91 842 24.86 -7.8 17.9 86 -9.8 14.3
22:15 1013 29.91 842 24.86 -8 17.6 86 -9.9 14.1
22:20 1013 29.91 843 24.89 -8 17.6 86 -10 14
22:25 1013 29.91 843 24.89 -8.1 17.5 85 -10.1 13.7
22:30 1013 29.91 843 24.89 -8.1 17.4 86 -10.1 13.8
22:35 1013 29.91 843 24.89 -8.2 17.2 85 -10.3 13.5
22:40 1014 29.94 843 24.89 -8.2 17.2 86 -10.2 13.7
22:45 1014 29.94 843 24.89 -8.4 16.9 88 -10 14
22:50 1014 29.94 843 24.89 -8.5 16.6 88 -10.3 13.5
22:55 1014 29.94 843 24.89 -8.8 16.1 87 -10.7 12.8
23:00 1014 29.94 843 24.89 -9 15.9 87 -10.7 12.7
23:05 1014 29.94 843 24.89 -9 15.7 87 -10.9 12.4
23:10 1014 29.94 843 24.89 -9.1 15.6 87 -10.9 12.5
23:15 1014 29.94 843 24.89 -9.1 15.6 88 -10.7 12.7
23:20 1014 29.94 843 24.89 -9.2 15.4 89 -10.7 12.8
23:25 1014 29.94 843 24.89 -9.4 15.1 89 -10.9 12.5
23:30 1014 29.94 843 24.89 -9.5 15 89 -10.9 12.4
23:35 1014 29.94 843 24.89 -9.5 14.9 89 -10.9 12.3
23:40 1014 29.94 843 24.89 -9.6 14.8 89 -11.1 12.1
23:45 1014 29.94 844 24.92 -9.6 14.8 89 -11.1 12
23:50 1014 29.94 844 24.92 -9.5 14.9 87 -11.2 11.8
23:55 1014 29.94 844 24.92 -9.5 15 88 -11.1 12.1
24:00 1015 29.97 844 24.92 -9.4 15 87 -11.2 11.8